createdAt,value
2018-06-27T00:01:13.577Z,1019.47
2018-06-27T00:02:13.480Z,1019.51
2018-06-27T00:04:06.249Z,1019.51
2018-06-27T00:05:06.193Z,1019.49
2018-06-27T00:06:58.971Z,1019.52
2018-06-27T00:07:58.906Z,1019.48
2018-06-27T00:09:51.667Z,1019.39
2018-06-27T00:10:51.610Z,1019.35
2018-06-27T00:12:44.404Z,1019.36
2018-06-27T00:13:44.331Z,1019.37
2018-06-27T00:15:37.113Z,1019.42
2018-06-27T00:16:37.047Z,1019.45
2018-06-27T00:18:29.845Z,1019.51
2018-06-27T00:26:53.530Z,1019.36
2018-06-27T00:33:37.977Z,1019.40
2018-06-27T00:34:37.886Z,1019.34
2018-06-27T00:36:30.678Z,1019.36
2018-06-27T00:37:30.597Z,1019.36
2018-06-27T00:39:23.380Z,1019.32
2018-06-27T00:40:23.320Z,1019.33
2018-06-27T00:42:16.121Z,1019.40
2018-06-27T00:43:16.032Z,1019.42
2018-06-27T00:45:08.803Z,1019.50
2018-06-27T00:46:08.742Z,1019.51
2018-06-27T00:48:01.526Z,1019.46
2018-06-27T00:49:01.455Z,1019.44
2018-06-27T00:50:54.246Z,1019.41
2018-06-27T00:51:54.176Z,1019.37
2018-06-27T00:53:46.977Z,1019.44
2018-06-27T00:54:46.903Z,1019.43
2018-06-27T00:56:39.698Z,1019.49
2018-06-27T00:57:39.630Z,1019.45
2018-06-27T00:59:32.408Z,1019.43
2018-06-27T01:00:32.328Z,1019.40
2018-06-27T01:02:25.103Z,1019.39
2018-06-27T01:03:25.036Z,1019.36
2018-06-27T01:05:17.818Z,1019.42
2018-06-27T01:06:17.750Z,1019.43
2018-06-27T01:08:10.547Z,1019.44
2018-06-27T01:09:10.466Z,1019.50
2018-06-27T01:11:03.246Z,1019.40
2018-06-27T01:12:03.196Z,1019.39
2018-06-27T01:13:55.973Z,1019.45
2018-06-27T01:14:55.896Z,1019.41
2018-06-27T01:16:48.657Z,1019.44
2018-06-27T01:17:48.601Z,1019.45
2018-06-27T01:19:41.406Z,1019.45
2018-06-27T01:20:41.320Z,1019.44
2018-06-27T01:22:34.097Z,1019.45
2018-06-27T01:23:34.024Z,1019.45
2018-06-27T01:25:26.849Z,1019.48
2018-06-27T01:26:26.779Z,1019.52
2018-06-27T01:28:19.592Z,1019.60
2018-06-27T01:29:19.494Z,1019.55
2018-06-27T01:31:12.278Z,1019.58
2018-06-27T01:32:12.213Z,1019.57
2018-06-27T01:34:04.996Z,1019.61
2018-06-27T01:35:04.924Z,1019.54
2018-06-27T01:36:57.703Z,1019.59
2018-06-27T01:37:57.637Z,1019.55
2018-06-27T01:39:50.418Z,1019.59
2018-06-27T01:40:50.346Z,1019.59
2018-06-27T01:42:43.151Z,1019.65
2018-06-27T01:43:43.059Z,1019.66
2018-06-27T01:45:35.855Z,1019.64
2018-06-27T01:46:35.790Z,1019.62
2018-06-27T01:48:28.594Z,1019.56
2018-06-27T01:49:28.519Z,1019.56
2018-06-27T01:51:21.288Z,1019.59
2018-06-27T01:52:21.226Z,1019.56
2018-06-27T01:54:14.023Z,1019.51
2018-06-27T01:55:13.962Z,1019.53
2018-06-27T01:57:06.714Z,1019.58
2018-06-27T01:58:06.654Z,1019.56
2018-06-27T01:59:59.427Z,1019.54
2018-06-27T02:00:59.353Z,1019.51
2018-06-27T02:02:52.126Z,1019.51
2018-06-27T02:03:52.060Z,1019.52
2018-06-27T02:05:44.901Z,1019.52
2018-06-27T02:06:44.785Z,1019.55
2018-06-27T02:08:37.596Z,1019.53
2018-06-27T02:09:37.538Z,1019.48
2018-06-27T02:11:30.289Z,1019.45
2018-06-27T02:12:30.223Z,1019.42
2018-06-27T02:14:23.012Z,1019.47
2018-06-27T02:15:22.938Z,1019.46
2018-06-27T02:17:15.761Z,1019.53
2018-06-27T02:18:15.649Z,1019.54
2018-06-27T02:20:08.492Z,1019.52
2018-06-27T02:21:08.410Z,1019.55
2018-06-27T02:23:01.230Z,1019.60
2018-06-27T02:24:01.161Z,1019.60
2018-06-27T02:25:53.949Z,1019.59
2018-06-27T02:26:53.879Z,1019.66
2018-06-27T02:28:46.661Z,1019.63
2018-06-27T02:29:46.586Z,1019.64
2018-06-27T02:31:39.357Z,1019.68
2018-06-27T02:32:39.294Z,1019.69
2018-06-27T02:34:32.120Z,1019.71
2018-06-27T02:35:32.013Z,1019.76
2018-06-27T02:37:24.783Z,1019.76
2018-06-27T02:38:24.718Z,1019.71
2018-06-27T02:40:17.497Z,1019.74
2018-06-27T02:41:17.419Z,1019.71
2018-06-27T02:43:10.192Z,1019.74
2018-06-27T02:44:10.138Z,1019.75
2018-06-27T02:46:02.909Z,1019.72
2018-06-27T02:47:02.852Z,1019.74
2018-06-27T02:48:55.617Z,1019.72
2018-06-27T02:49:55.831Z,1019.70
2018-06-27T02:51:48.339Z,1019.72
2018-06-27T02:52:48.265Z,1019.74
2018-06-27T02:54:41.053Z,1019.76
2018-06-27T02:55:40.995Z,1019.69
2018-06-27T02:57:33.737Z,1019.69
2018-06-27T02:58:33.673Z,1019.69
2018-06-27T03:00:26.485Z,1019.74
2018-06-27T03:01:26.411Z,1019.79
2018-06-27T03:03:19.194Z,1019.83
2018-06-27T03:04:19.124Z,1019.84
2018-06-27T03:06:11.930Z,1019.92
2018-06-27T03:07:11.833Z,1019.91
2018-06-27T03:09:04.619Z,1019.92
2018-06-27T03:10:04.549Z,1019.96
2018-06-27T03:11:57.341Z,1019.97
2018-06-27T03:12:57.266Z,1019.98
2018-06-27T03:14:50.066Z,1019.95
2018-06-27T03:15:49.994Z,1019.95
2018-06-27T03:17:42.771Z,1020.03
2018-06-27T03:18:42.693Z,1020.01
2018-06-27T03:20:35.535Z,1020.02
2018-06-27T03:21:35.394Z,1020.03
2018-06-27T03:23:28.164Z,1020.04
2018-06-27T03:24:28.092Z,1020.03
2018-06-27T03:26:20.910Z,1020.04
2018-06-27T03:27:20.831Z,1020.06
2018-06-27T03:29:13.617Z,1020.05
2018-06-27T03:30:13.540Z,1020.09
2018-06-27T03:32:06.326Z,1020.08
2018-06-27T03:33:06.259Z,1020.03
2018-06-27T03:34:59.073Z,1020.06
2018-06-27T03:35:58.972Z,1020.06
2018-06-27T03:37:51.739Z,1020.09
2018-06-27T03:38:51.675Z,1020.08
2018-06-27T03:40:44.474Z,1020.09
2018-06-27T03:41:44.397Z,1020.07
2018-06-27T03:43:37.172Z,1020.10
2018-06-27T03:44:37.117Z,1020.09
2018-06-27T03:46:29.893Z,1020.09
2018-06-27T03:47:29.816Z,1020.11
2018-06-27T03:49:22.611Z,1020.10
2018-06-27T03:50:22.528Z,1020.15
2018-06-27T03:52:15.301Z,1020.13
2018-06-27T03:53:15.261Z,1020.16
2018-06-27T03:55:08.004Z,1020.17
2018-06-27T03:56:07.946Z,1020.17
2018-06-27T03:58:00.739Z,1020.21
2018-06-27T03:59:00.724Z,1020.23
2018-06-27T04:00:53.479Z,1020.26
2018-06-27T04:01:53.416Z,1020.25
2018-06-27T04:03:46.187Z,1020.25
2018-06-27T04:04:46.113Z,1020.27
2018-06-27T04:06:38.921Z,1020.24
2018-06-27T04:07:38.846Z,1020.26
2018-06-27T04:09:31.619Z,1020.30
2018-06-27T04:10:31.571Z,1020.29
2018-06-27T04:12:24.365Z,1020.35
2018-06-27T04:13:24.415Z,1020.36
2018-06-27T04:15:17.066Z,1020.36
2018-06-27T04:16:16.999Z,1020.29
2018-06-27T04:18:09.819Z,1020.35
2018-06-27T04:19:09.739Z,1020.32
2018-06-27T04:21:02.533Z,1020.37
2018-06-27T04:22:02.461Z,1020.38
2018-06-27T04:23:55.290Z,1020.39
2018-06-27T04:24:55.243Z,1020.37
2018-06-27T04:26:48.034Z,1020.37
2018-06-27T04:27:47.920Z,1020.40
2018-06-27T04:29:40.678Z,1020.40
2018-06-27T04:30:40.654Z,1020.39
2018-06-27T04:32:33.412Z,1020.39
2018-06-27T04:33:33.347Z,1020.43
2018-06-27T04:35:26.127Z,1020.46
2018-06-27T04:36:26.043Z,1020.48
2018-06-27T04:38:18.839Z,1020.44
2018-06-27T04:39:18.766Z,1020.47
2018-06-27T04:41:11.603Z,1020.44
2018-06-27T04:42:11.479Z,1020.47
2018-06-27T04:44:04.456Z,1020.51
2018-06-27T04:45:04.336Z,1020.48
2018-06-27T04:46:57.114Z,1020.49
2018-06-27T04:47:57.045Z,1020.50
2018-06-27T04:49:49.859Z,1020.50
2018-06-27T04:50:49.763Z,1020.53
2018-06-27T04:52:42.561Z,1020.60
2018-06-27T04:53:42.489Z,1020.59
2018-06-27T04:55:35.274Z,1020.66
2018-06-27T04:56:35.208Z,1020.66
2018-06-27T04:58:28.048Z,1020.67
2018-06-27T04:59:27.946Z,1020.67
2018-06-27T05:01:20.812Z,1020.62
2018-06-27T05:02:20.681Z,1020.65
2018-06-27T05:04:13.456Z,1020.67
2018-06-27T05:05:13.368Z,1020.70
2018-06-27T05:07:06.207Z,1020.64
2018-06-27T05:08:06.146Z,1020.68
2018-06-27T05:09:58.941Z,1020.66
2018-06-27T05:10:58.928Z,1020.63
2018-06-27T05:12:51.665Z,1020.68
2018-06-27T05:13:51.598Z,1020.65
2018-06-27T05:15:44.374Z,1020.69
2018-06-27T05:16:44.333Z,1020.68
2018-06-27T05:18:37.093Z,1020.70
2018-06-27T05:19:37.024Z,1020.71
2018-06-27T05:21:29.795Z,1020.76
2018-06-27T05:22:29.743Z,1020.78
2018-06-27T05:24:22.510Z,1020.79
2018-06-27T05:25:22.448Z,1020.85
2018-06-27T05:27:15.327Z,1020.86
2018-06-27T05:28:15.222Z,1020.85
2018-06-27T05:30:07.994Z,1020.90
2018-06-27T05:31:07.942Z,1020.87
2018-06-27T05:33:00.722Z,1020.85
2018-06-27T05:34:00.691Z,1020.83
2018-06-27T05:35:53.433Z,1020.85
2018-06-27T05:36:53.377Z,1020.85
2018-06-27T05:38:46.190Z,1020.87
2018-06-27T05:39:46.097Z,1020.90
2018-06-27T05:41:38.873Z,1020.90
2018-06-27T05:42:38.934Z,1020.93
2018-06-27T05:44:31.587Z,1020.93
2018-06-27T05:45:31.519Z,1020.93
2018-06-27T05:47:24.291Z,1020.91
2018-06-27T05:48:24.230Z,1020.90
2018-06-27T05:50:17.040Z,1020.92
2018-06-27T05:51:16.956Z,1020.94
2018-06-27T05:53:09.771Z,1020.95
2018-06-27T05:54:09.705Z,1020.94
2018-06-27T05:56:02.479Z,1020.98
2018-06-27T05:57:02.418Z,1021.01
2018-06-27T05:58:55.198Z,1021.04
2018-06-27T05:59:55.127Z,1021.00
2018-06-27T06:01:47.903Z,1021.03
2018-06-27T06:02:47.841Z,1021.08
2018-06-27T06:04:40.621Z,1021.08
2018-06-27T06:05:40.556Z,1021.13
2018-06-27T06:07:33.339Z,1021.17
2018-06-27T06:08:33.278Z,1021.17
2018-06-27T06:10:26.072Z,1021.20
2018-06-27T06:11:26.014Z,1021.21
2018-06-27T06:13:18.786Z,1021.21
2018-06-27T06:14:18.716Z,1021.22
2018-06-27T06:16:11.497Z,1021.22
2018-06-27T06:17:11.436Z,1021.20
2018-06-27T06:19:04.246Z,1021.19
2018-06-27T06:20:04.184Z,1021.26
2018-06-27T06:21:56.964Z,1021.22
2018-06-27T06:22:56.901Z,1021.21
2018-06-27T06:24:49.707Z,1021.22
2018-06-27T06:25:49.637Z,1021.24
2018-06-27T06:27:42.411Z,1021.27
2018-06-27T06:28:42.378Z,1021.27
2018-06-27T06:30:35.155Z,1021.28
2018-06-27T06:31:35.087Z,1021.27
2018-06-27T06:33:27.861Z,1021.27
2018-06-27T06:34:27.813Z,1021.30
2018-06-27T06:36:20.587Z,1021.29
2018-06-27T06:37:20.512Z,1021.26
2018-06-27T06:39:13.320Z,1021.29
2018-06-27T06:40:13.257Z,1021.29
2018-06-27T06:42:06.051Z,1021.32
2018-06-27T06:43:05.991Z,1021.30
2018-06-27T06:44:58.781Z,1021.34
2018-06-27T06:45:58.765Z,1021.34
2018-06-27T06:47:51.496Z,1021.35
2018-06-27T06:48:51.429Z,1021.35
2018-06-27T06:50:44.230Z,1021.37
2018-06-27T06:51:44.155Z,1021.40
2018-06-27T06:53:36.948Z,1021.41
2018-06-27T06:54:36.886Z,1021.43
2018-06-27T06:56:29.682Z,1021.40
2018-06-27T06:57:29.643Z,1021.43
2018-06-27T06:59:22.416Z,1021.44
2018-06-27T07:00:22.346Z,1021.39
2018-06-27T07:02:15.169Z,1021.38
2018-06-27T07:03:15.073Z,1021.47
2018-06-27T07:05:07.868Z,1021.43
2018-06-27T07:06:07.798Z,1021.45
2018-06-27T07:08:00.587Z,1021.46
2018-06-27T07:09:00.529Z,1021.48
2018-06-27T07:10:53.322Z,1021.47
2018-06-27T07:11:53.276Z,1021.48
2018-06-27T07:13:46.039Z,1021.48
2018-06-27T07:14:45.981Z,1021.50
2018-06-27T07:16:38.808Z,1021.52
2018-06-27T07:17:38.740Z,1021.54
2018-06-27T07:19:31.539Z,1021.50
2018-06-27T07:20:31.465Z,1021.49
2018-06-27T07:22:24.241Z,1021.47
2018-06-27T07:23:24.186Z,1021.45
2018-06-27T07:25:16.982Z,1021.48
2018-06-27T07:26:16.914Z,1021.40
2018-06-27T07:28:10.552Z,1021.47
2018-06-27T07:29:10.493Z,1021.44
2018-06-27T07:31:03.305Z,1021.49
2018-06-27T07:32:03.238Z,1021.48
2018-06-27T07:33:56.023Z,1021.53
2018-06-27T07:34:55.970Z,1021.48
2018-06-27T07:36:48.779Z,1021.53
2018-06-27T07:37:48.709Z,1021.48
2018-06-27T07:39:41.500Z,1021.52
2018-06-27T07:40:41.439Z,1021.56
2018-06-27T07:42:34.240Z,1021.53
2018-06-27T07:43:34.177Z,1021.62
2018-06-27T07:45:26.976Z,1021.59
2018-06-27T07:46:26.905Z,1021.61
2018-06-27T07:48:19.717Z,1021.58
2018-06-27T07:49:19.658Z,1021.61
2018-06-27T07:51:12.457Z,1021.60
2018-06-27T07:52:12.392Z,1021.66
2018-06-27T07:54:05.172Z,1021.66
2018-06-27T07:55:05.148Z,1021.62
2018-06-27T07:56:57.915Z,1021.65
2018-06-27T07:57:57.852Z,1021.63
2018-06-27T07:59:50.653Z,1021.66
2018-06-27T08:00:50.574Z,1021.59
2018-06-27T08:02:43.375Z,1021.63
2018-06-27T08:03:43.305Z,1021.61
2018-06-27T08:05:36.110Z,1021.55
2018-06-27T08:06:36.036Z,1021.55
2018-06-27T08:08:28.820Z,1021.52
2018-06-27T08:09:28.765Z,1021.54
2018-06-27T08:11:21.564Z,1021.54
2018-06-27T08:12:21.562Z,1021.50
2018-06-27T08:14:14.290Z,1021.48
2018-06-27T08:15:14.230Z,1021.52
2018-06-27T08:17:07.040Z,1021.55
2018-06-27T08:18:07.048Z,1021.51
2018-06-27T08:19:59.769Z,1021.56
2018-06-27T08:20:59.714Z,1021.52
2018-06-27T08:22:52.525Z,1021.51
2018-06-27T08:23:52.477Z,1021.47
2018-06-27T08:25:45.278Z,1021.49
2018-06-27T08:26:45.190Z,1021.46
2018-06-27T08:28:37.969Z,1021.54
2018-06-27T08:29:37.921Z,1021.51
2018-06-27T08:31:30.830Z,1021.56
2018-06-27T08:32:30.703Z,1021.60
2018-06-27T08:34:23.422Z,1021.59
2018-06-27T08:35:23.365Z,1021.58
2018-06-27T08:37:16.159Z,1021.55
2018-06-27T08:38:16.093Z,1021.59
2018-06-27T08:40:08.881Z,1021.59
2018-06-27T08:41:08.863Z,1021.61
2018-06-27T08:43:01.617Z,1021.63
2018-06-27T08:44:01.544Z,1021.55
2018-06-27T08:45:54.346Z,1021.57
2018-06-27T08:46:54.270Z,1021.58
2018-06-27T08:48:47.119Z,1021.53
2018-06-27T08:49:47.006Z,1021.57
2018-06-27T08:51:39.823Z,1021.57
2018-06-27T08:52:39.749Z,1021.59
2018-06-27T08:54:32.535Z,1021.58
2018-06-27T08:55:32.481Z,1021.65
2018-06-27T08:57:25.280Z,1021.60
2018-06-27T08:58:25.205Z,1021.58
2018-06-27T09:00:18.002Z,1021.62
2018-06-27T09:01:17.954Z,1021.60
2018-06-27T09:03:10.740Z,1021.62
2018-06-27T09:04:10.672Z,1021.64
2018-06-27T09:06:03.457Z,1021.62
2018-06-27T09:07:03.403Z,1021.68
2018-06-27T09:08:56.201Z,1021.65
2018-06-27T09:09:56.136Z,1021.64
2018-06-27T09:11:48.931Z,1021.72
2018-06-27T09:12:48.869Z,1021.66
2018-06-27T09:14:41.687Z,1021.77
2018-06-27T09:15:41.630Z,1021.77
2018-06-27T09:17:34.413Z,1021.74
2018-06-27T09:18:34.355Z,1021.76
2018-06-27T09:20:27.141Z,1021.74
2018-06-27T09:21:27.103Z,1021.78
2018-06-27T09:23:19.879Z,1021.77
2018-06-27T09:24:19.796Z,1021.71
2018-06-27T09:26:12.590Z,1021.82
2018-06-27T09:27:12.547Z,1021.76
2018-06-27T09:29:05.336Z,1021.80
2018-06-27T09:30:05.272Z,1021.80
2018-06-27T09:31:58.049Z,1021.83
2018-06-27T09:32:57.992Z,1021.78
2018-06-27T09:34:50.788Z,1021.85
2018-06-27T09:35:50.718Z,1021.75
2018-06-27T09:37:43.503Z,1021.75
2018-06-27T09:38:43.439Z,1021.74
2018-06-27T09:40:36.225Z,1021.75
2018-06-27T09:41:36.164Z,1021.74
2018-06-27T09:43:28.972Z,1021.68
2018-06-27T09:44:28.890Z,1021.70
2018-06-27T09:46:21.675Z,1021.66
2018-06-27T09:47:21.616Z,1021.72
2018-06-27T09:49:14.461Z,1021.65
2018-06-27T09:50:14.364Z,1021.68
2018-06-27T09:52:07.134Z,1021.65
2018-06-27T09:53:07.083Z,1021.70
2018-06-27T09:54:59.909Z,1021.65
2018-06-27T09:55:59.837Z,1021.69
2018-06-27T09:57:52.676Z,1021.60
2018-06-27T09:58:52.565Z,1021.71
2018-06-27T10:00:45.355Z,1021.64
2018-06-27T10:01:45.289Z,1021.61
2018-06-27T10:03:38.104Z,1021.58
2018-06-27T10:04:38.022Z,1021.62
2018-06-27T10:06:30.817Z,1021.56
2018-06-27T10:07:30.810Z,1021.55
2018-06-27T10:09:23.552Z,1021.53
2018-06-27T10:10:23.487Z,1021.59
2018-06-27T10:12:16.270Z,1021.57
2018-06-27T10:13:16.214Z,1021.67
2018-06-27T10:15:09.016Z,1021.51
2018-06-27T10:16:08.937Z,1021.53
2018-06-27T10:18:01.764Z,1021.57
2018-06-27T10:19:01.690Z,1021.47
2018-06-27T10:20:54.510Z,1021.47
2018-06-27T10:21:54.443Z,1021.53
2018-06-27T10:23:47.281Z,1021.51
2018-06-27T10:24:47.218Z,1021.52
2018-06-27T10:26:39.986Z,1021.44
2018-06-27T10:27:39.927Z,1021.44
2018-06-27T10:29:32.733Z,1021.44
2018-06-27T10:30:32.669Z,1021.41
2018-06-27T10:32:25.450Z,1021.36
2018-06-27T10:33:25.392Z,1021.34
2018-06-27T10:35:18.258Z,1021.38
2018-06-27T10:36:18.208Z,1021.37
2018-06-27T10:38:10.972Z,1021.37
2018-06-27T10:39:10.937Z,1021.37
2018-06-27T10:41:03.718Z,1021.37
2018-06-27T10:42:03.632Z,1021.37
2018-06-27T10:43:56.468Z,1021.36
2018-06-27T10:44:56.362Z,1021.38
2018-06-27T10:46:49.168Z,1021.37
2018-06-27T10:47:49.104Z,1021.37
2018-06-27T10:49:42.040Z,1021.31
2018-06-27T10:50:41.950Z,1021.29
2018-06-27T10:52:34.761Z,1021.28
2018-06-27T10:53:34.705Z,1021.33
2018-06-27T10:55:27.519Z,1021.35
2018-06-27T10:56:27.452Z,1021.27
2018-06-27T10:58:20.274Z,1021.30
2018-06-27T10:59:20.208Z,1021.36
2018-06-27T11:01:13.020Z,1021.27
2018-06-27T11:02:12.945Z,1021.33
2018-06-27T11:04:05.733Z,1021.32
2018-06-27T11:05:05.672Z,1021.29
2018-06-27T11:06:58.471Z,1021.35
2018-06-27T11:07:58.411Z,1021.32
2018-06-27T11:09:51.231Z,1021.30
2018-06-27T11:10:51.156Z,1021.27
2018-06-27T11:12:43.949Z,1021.33
2018-06-27T11:13:43.884Z,1021.33
2018-06-27T11:15:36.693Z,1021.25
2018-06-27T11:16:36.625Z,1021.23
2018-06-27T11:18:29.398Z,1021.25
2018-06-27T11:19:29.338Z,1021.19
2018-06-27T11:21:22.126Z,1021.22
2018-06-27T11:22:22.063Z,1021.26
2018-06-27T11:24:14.841Z,1021.23
2018-06-27T11:25:14.788Z,1021.21
2018-06-27T11:27:07.576Z,1021.27
2018-06-27T11:28:07.506Z,1021.23
2018-06-27T11:30:00.315Z,1021.24
2018-06-27T11:31:00.227Z,1021.20
2018-06-27T11:32:53.050Z,1021.20
2018-06-27T11:33:52.956Z,1021.25
2018-06-27T11:35:45.758Z,1021.17
2018-06-27T11:36:45.678Z,1021.19
2018-06-27T11:38:38.508Z,1021.16
2018-06-27T11:39:38.410Z,1021.18
2018-06-27T11:41:31.198Z,1021.11
2018-06-27T11:42:31.124Z,1021.15
2018-06-27T11:44:23.930Z,1021.17
2018-06-27T11:45:23.864Z,1021.12
2018-06-27T11:47:16.666Z,1021.10
2018-06-27T11:48:16.590Z,1021.09
2018-06-27T11:50:09.409Z,1021.15
2018-06-27T11:51:09.346Z,1021.13
2018-06-27T11:53:02.137Z,1021.13
2018-06-27T11:54:02.080Z,1021.11
2018-06-27T11:55:54.861Z,1021.10
2018-06-27T11:56:54.787Z,1021.11
2018-06-27T11:58:47.564Z,1021.13
2018-06-27T11:59:47.504Z,1021.14
2018-06-27T12:01:40.292Z,1021.08
2018-06-27T12:02:40.225Z,1021.08
2018-06-27T12:04:33.011Z,1021.10
2018-06-27T12:05:32.943Z,1021.08
2018-06-27T12:07:25.732Z,1021.06
2018-06-27T12:08:25.693Z,1021.05
2018-06-27T12:10:18.470Z,1021.04
2018-06-27T12:11:18.406Z,1021.01
2018-06-27T12:13:11.210Z,1020.98
2018-06-27T12:14:11.133Z,1020.98
2018-06-27T12:16:03.926Z,1020.98
2018-06-27T12:17:03.855Z,1020.96
2018-06-27T12:18:56.637Z,1020.97
2018-06-27T12:19:56.577Z,1021.00
2018-06-27T12:21:49.409Z,1020.96
2018-06-27T12:22:49.332Z,1020.96
2018-06-27T12:24:42.114Z,1020.93
2018-06-27T12:25:42.065Z,1020.90
2018-06-27T12:27:34.867Z,1020.91
2018-06-27T12:28:34.787Z,1020.93
2018-06-27T12:30:27.575Z,1020.90
2018-06-27T12:31:27.520Z,1020.92
2018-06-27T12:33:20.317Z,1020.92
2018-06-27T12:34:20.239Z,1020.93
2018-06-27T12:36:13.029Z,1020.94
2018-06-27T12:37:12.956Z,1020.88
2018-06-27T12:39:05.741Z,1020.87
2018-06-27T12:40:05.682Z,1020.88
2018-06-27T12:41:58.466Z,1020.83
2018-06-27T12:42:58.398Z,1020.86
2018-06-27T12:44:51.170Z,1020.83
2018-06-27T12:45:51.114Z,1020.82
2018-06-27T12:47:43.906Z,1020.75
2018-06-27T12:48:43.861Z,1020.73
2018-06-27T12:50:36.620Z,1020.77
2018-06-27T12:51:36.558Z,1020.78
2018-06-27T12:53:29.504Z,1020.72
2018-06-27T12:54:29.274Z,1020.73
2018-06-27T12:56:22.048Z,1020.76
2018-06-27T12:57:21.995Z,1020.70
2018-06-27T12:59:14.780Z,1020.66
2018-06-27T13:00:14.712Z,1020.64
2018-06-27T13:02:07.495Z,1020.80
2018-06-27T13:03:07.441Z,1020.73
2018-06-27T13:05:00.214Z,1020.66
2018-06-27T13:06:00.159Z,1020.58
2018-06-27T13:07:52.961Z,1020.55
2018-06-27T13:08:52.970Z,1020.55
2018-06-27T13:10:45.666Z,1020.61
2018-06-27T13:11:45.608Z,1020.60
2018-06-27T13:13:38.396Z,1020.60
2018-06-27T13:14:38.327Z,1020.60
2018-06-27T13:16:31.121Z,1020.58
2018-06-27T13:17:31.058Z,1020.57
2018-06-27T13:19:23.873Z,1020.50
2018-06-27T13:20:23.806Z,1020.50
2018-06-27T13:22:16.573Z,1020.51
2018-06-27T13:23:16.506Z,1020.42
2018-06-27T13:25:09.280Z,1020.62
2018-06-27T13:26:09.222Z,1020.47
2018-06-27T13:28:02.026Z,1020.46
2018-06-27T13:29:01.959Z,1020.45
2018-06-27T13:30:54.723Z,1020.48
2018-06-27T13:31:54.671Z,1020.47
2018-06-27T13:33:47.567Z,1020.49
2018-06-27T13:34:47.424Z,1020.52
2018-06-27T13:36:40.153Z,1020.47
2018-06-27T13:37:40.103Z,1020.44
2018-06-27T13:39:32.892Z,1020.47
2018-06-27T13:40:32.818Z,1020.48
2018-06-27T13:42:25.593Z,1020.46
2018-06-27T13:43:25.632Z,1020.43
2018-06-27T13:45:18.327Z,1020.46
2018-06-27T13:46:18.263Z,1020.41
2018-06-27T13:48:11.046Z,1020.45
2018-06-27T13:49:10.975Z,1020.44
2018-06-27T13:51:03.748Z,1020.43
2018-06-27T13:52:03.689Z,1020.49
2018-06-27T13:53:56.501Z,1020.46
2018-06-27T13:54:56.431Z,1020.49
2018-06-27T13:56:49.220Z,1020.49
2018-06-27T13:57:49.151Z,1020.51
2018-06-27T13:59:41.950Z,1020.51
2018-06-27T14:00:41.881Z,1020.50
2018-06-27T14:02:34.648Z,1020.52
2018-06-27T14:03:34.587Z,1020.48
2018-06-27T14:05:27.412Z,1020.49
2018-06-27T14:06:27.375Z,1020.45
2018-06-27T14:08:20.114Z,1020.39
2018-06-27T14:09:20.044Z,1020.38
2018-06-27T14:11:12.840Z,1020.41
2018-06-27T14:12:12.779Z,1020.37
2018-06-27T14:14:05.586Z,1020.40
2018-06-27T14:15:05.516Z,1020.33
2018-06-27T14:16:58.290Z,1020.38
2018-06-27T14:17:58.233Z,1020.36
2018-06-27T14:19:51.020Z,1020.31
2018-06-27T14:20:50.949Z,1020.25
2018-06-27T14:22:43.737Z,1020.34
2018-06-27T14:23:43.681Z,1020.32
2018-06-27T14:25:36.469Z,1020.31
2018-06-27T14:26:36.398Z,1020.32
2018-06-27T14:28:29.228Z,1020.32
2018-06-27T14:29:29.117Z,1020.25
2018-06-27T14:31:21.894Z,1020.26
2018-06-27T14:32:21.838Z,1020.26
2018-06-27T14:34:14.656Z,1020.26
2018-06-27T14:35:14.582Z,1020.22
2018-06-27T14:37:07.369Z,1020.28
2018-06-27T14:38:07.313Z,1020.22
2018-06-27T14:40:00.108Z,1020.19
2018-06-27T14:41:00.036Z,1020.23
2018-06-27T14:42:52.819Z,1020.26
2018-06-27T14:43:52.765Z,1020.26
2018-06-27T14:45:45.543Z,1020.20
2018-06-27T14:46:45.469Z,1020.21
2018-06-27T14:48:38.240Z,1020.15
2018-06-27T14:49:38.185Z,1020.20
2018-06-27T14:51:30.974Z,1020.16
2018-06-27T14:52:30.901Z,1020.20
2018-06-27T14:54:23.684Z,1020.23
2018-06-27T14:55:23.615Z,1020.15
2018-06-27T14:57:16.508Z,1020.18
2018-06-27T14:58:16.344Z,1020.21
2018-06-27T15:00:09.137Z,1020.19
2018-06-27T15:01:09.063Z,1020.18
2018-06-27T15:03:01.845Z,1020.13
2018-06-27T15:04:01.837Z,1020.18
2018-06-27T15:05:54.579Z,1020.20
2018-06-27T15:06:54.509Z,1020.13
2018-06-27T15:08:47.284Z,1020.19
2018-06-27T15:09:47.228Z,1020.19
2018-06-27T15:11:40.012Z,1020.18
2018-06-27T15:12:39.941Z,1020.20
2018-06-27T15:14:32.741Z,1020.21
2018-06-27T15:15:32.666Z,1020.18
2018-06-27T15:17:25.445Z,1020.20
2018-06-27T15:18:25.378Z,1020.20
2018-06-27T15:20:18.184Z,1020.18
2018-06-27T15:21:18.115Z,1020.15
2018-06-27T15:23:10.894Z,1020.13
2018-06-27T15:24:10.834Z,1020.19
2018-06-27T15:26:03.627Z,1020.15
2018-06-27T15:27:03.548Z,1020.16
2018-06-27T15:28:56.318Z,1020.16
2018-06-27T15:29:56.266Z,1020.09
2018-06-27T15:31:49.058Z,1020.13
2018-06-27T15:32:48.981Z,1020.13
2018-06-27T15:34:41.780Z,1020.10
2018-06-27T15:35:41.712Z,1020.05
2018-06-27T15:37:34.495Z,1020.05
2018-06-27T15:38:34.420Z,1020.07
2018-06-27T15:40:27.258Z,1020.03
2018-06-27T15:41:27.189Z,1020.05
2018-06-27T15:43:19.980Z,1019.99
2018-06-27T15:44:19.921Z,1020.01
2018-06-27T15:46:12.731Z,1020.00
2018-06-27T15:47:12.651Z,1020.00
2018-06-27T15:49:05.441Z,1019.97
2018-06-27T15:50:05.379Z,1019.98
2018-06-27T15:51:58.203Z,1019.96
2018-06-27T15:52:58.105Z,1019.99
2018-06-27T15:54:50.909Z,1019.94
2018-06-27T15:55:50.819Z,1020.00
2018-06-27T15:57:43.636Z,1019.92
2018-06-27T15:58:43.533Z,1019.98
2018-06-27T16:00:36.326Z,1019.95
2018-06-27T16:01:36.279Z,1019.94
2018-06-27T16:03:29.062Z,1019.95
2018-06-27T16:04:28.980Z,1019.97
2018-06-27T16:06:21.781Z,1019.88
2018-06-27T16:07:21.703Z,1019.89
2018-06-27T16:09:14.488Z,1019.84
2018-06-27T16:10:14.434Z,1019.84
2018-06-27T16:12:07.244Z,1019.84
2018-06-27T16:13:07.152Z,1019.83
2018-06-27T16:14:59.933Z,1019.79
2018-06-27T16:15:59.875Z,1019.83
2018-06-27T16:17:52.673Z,1019.81
2018-06-27T16:18:52.617Z,1019.83
2018-06-27T16:20:45.421Z,1019.82
2018-06-27T16:21:45.379Z,1019.81
2018-06-27T16:23:38.130Z,1019.85
2018-06-27T16:24:38.062Z,1019.83
2018-06-27T16:26:30.867Z,1019.84
2018-06-27T16:27:30.784Z,1019.80
2018-06-27T16:29:23.561Z,1019.81
2018-06-27T16:30:23.497Z,1019.80
2018-06-27T16:32:16.289Z,1019.76
2018-06-27T16:33:16.219Z,1019.76
2018-06-27T16:35:09.019Z,1019.80
2018-06-27T16:36:08.959Z,1019.78
2018-06-27T16:38:01.746Z,1019.76
2018-06-27T16:39:01.697Z,1019.78
2018-06-27T16:40:54.463Z,1019.76
2018-06-27T16:41:54.398Z,1019.76
2018-06-27T16:43:47.195Z,1019.81
2018-06-27T16:44:47.121Z,1019.76
2018-06-27T16:46:39.907Z,1019.75
2018-06-27T16:47:39.852Z,1019.74
2018-06-27T16:49:32.606Z,1019.75
2018-06-27T16:50:32.554Z,1019.73
2018-06-27T16:52:25.329Z,1019.73
2018-06-27T16:53:25.262Z,1019.69
2018-06-27T16:55:18.058Z,1019.78
2018-06-27T16:56:17.996Z,1019.79
2018-06-27T16:58:10.794Z,1019.68
2018-06-27T16:59:10.732Z,1019.72
2018-06-27T17:01:03.503Z,1019.78
2018-06-27T17:02:03.430Z,1019.80
2018-06-27T17:03:56.223Z,1019.76
2018-06-27T17:04:56.154Z,1019.77
2018-06-27T17:06:48.969Z,1019.76
2018-06-27T17:07:48.884Z,1019.75
2018-06-27T17:09:41.650Z,1019.70
2018-06-27T17:10:41.600Z,1019.75
2018-06-27T17:12:34.376Z,1019.75
2018-06-27T17:13:34.310Z,1019.77
2018-06-27T17:15:27.082Z,1019.78
2018-06-27T17:16:27.037Z,1019.77
2018-06-27T17:18:19.812Z,1019.76
2018-06-27T17:19:19.737Z,1019.72
2018-06-27T17:21:12.523Z,1019.76
2018-06-27T17:22:12.465Z,1019.71
2018-06-27T17:24:05.264Z,1019.81
2018-06-27T17:25:05.193Z,1019.76
2018-06-27T17:26:58.018Z,1019.80
2018-06-27T17:27:57.917Z,1019.82
2018-06-27T17:29:50.708Z,1019.77
2018-06-27T17:30:50.641Z,1019.83
2018-06-27T17:32:43.451Z,1019.84
2018-06-27T17:33:43.373Z,1019.81
2018-06-27T17:35:36.147Z,1019.88
2018-06-27T17:36:36.086Z,1019.85